createdAt,value
2023-04-13T00:01:11.711Z,8.30
2023-04-13T00:03:39.663Z,8.20
2023-04-13T00:06:11.354Z,8.20
2023-04-13T00:08:38.594Z,8.10
2023-04-13T00:11:08.556Z,8.30
2023-04-13T00:13:41.418Z,8.30
2023-04-13T00:16:10.152Z,8.30
2023-04-13T00:18:37.124Z,8.30
2023-04-13T00:21:04.153Z,8.30
2023-04-13T00:23:32.184Z,8.20
2023-04-13T00:26:01.762Z,8.20
2023-04-13T00:28:30.149Z,8.20
2023-04-13T00:30:59.717Z,8.30
2023-04-13T00:33:26.718Z,8.30
2023-04-13T00:35:53.648Z,8.30
2023-04-13T00:38:20.601Z,8.30
2023-04-13T00:40:47.545Z,8.40
2023-04-13T00:43:14.981Z,8.30
2023-04-13T00:45:42.107Z,8.30
2023-04-13T00:48:12.811Z,8.50
2023-04-13T00:50:41.682Z,8.50
2023-04-13T00:53:13.476Z,8.50
2023-04-13T00:55:42.822Z,8.50
2023-04-13T00:58:10.195Z,8.50
2023-04-13T01:00:43.181Z,8.50
2023-04-13T01:03:11.550Z,8.50
2023-04-13T01:05:54.473Z,8.40
2023-04-13T01:08:36.831Z,8.50
2023-04-13T01:11:39.772Z,8.40
2023-04-13T01:14:13.368Z,8.40
2023-04-13T01:16:49.372Z,8.40
2023-04-13T01:19:28.555Z,8.40
2023-04-13T01:21:56.662Z,8.40
2023-04-13T01:25:05.887Z,8.30
2023-04-13T01:27:47.830Z,8.30
2023-04-13T01:30:18.295Z,8.30
2023-04-13T01:32:45.981Z,8.30
2023-04-13T01:35:13.636Z,8.30
2023-04-13T01:37:44.965Z,8.30
2023-04-13T01:40:12.915Z,8.40
2023-04-13T01:42:40.837Z,8.40
2023-04-13T01:45:10.792Z,8.40
2023-04-13T01:47:42.422Z,8.40
2023-04-13T01:50:43.406Z,8.50
2023-04-13T01:53:17.835Z,8.60
2023-04-13T01:55:46.305Z,8.60
2023-04-13T01:58:14.496Z,8.50
2023-04-13T02:00:42.393Z,8.60
2023-04-13T02:03:10.773Z,8.50
2023-04-13T02:05:38.292Z,8.60
2023-04-13T02:08:06.647Z,8.60
2023-04-13T02:10:34.856Z,8.70
2023-04-13T02:13:04.107Z,8.60
2023-04-13T02:15:38.436Z,8.60
2023-04-13T02:18:06.441Z,8.60
2023-04-13T02:20:44.877Z,8.60
2023-04-13T02:23:15.115Z,8.60
2023-04-13T02:25:44.761Z,8.50
2023-04-13T02:28:13.031Z,8.50
2023-04-13T02:30:39.973Z,8.60
2023-04-13T02:33:09.675Z,8.60
2023-04-13T02:35:38.946Z,8.60
2023-04-13T02:38:10.852Z,8.60
2023-04-13T02:40:38.952Z,8.60
2023-04-13T02:43:06.008Z,8.60
2023-04-13T02:45:33.125Z,8.60
2023-04-13T02:48:00.294Z,8.70
2023-04-13T02:50:28.174Z,8.70
2023-04-13T02:52:55.284Z,8.80
2023-04-13T02:55:22.346Z,8.80
2023-04-13T02:57:50.043Z,8.80
2023-04-13T03:00:17.382Z,8.70
2023-04-13T03:02:44.893Z,8.70
2023-04-13T03:05:13.061Z,8.70
2023-04-13T03:07:40.130Z,8.70
2023-04-13T03:10:09.052Z,8.60
2023-04-13T03:12:36.943Z,8.60
2023-04-13T03:15:08.252Z,8.60
2023-04-13T03:17:36.010Z,8.60
2023-04-13T03:20:09.692Z,8.50
2023-04-13T03:22:36.653Z,8.50
2023-04-13T03:25:03.752Z,8.50
2023-04-13T03:27:30.756Z,8.50
2023-04-13T03:29:57.808Z,8.60
2023-04-13T03:32:25.576Z,8.50
2023-04-13T03:34:52.637Z,8.40
2023-04-13T03:37:19.919Z,8.40
2023-04-13T03:39:46.929Z,8.40
2023-04-13T03:42:15.261Z,8.40
2023-04-13T03:44:42.513Z,8.40
2023-04-13T03:47:09.811Z,8.40
2023-04-13T03:49:36.860Z,8.40
2023-04-13T03:52:03.951Z,8.40
2023-04-13T03:54:31.110Z,8.40
2023-04-13T03:56:59.102Z,8.40
2023-04-13T03:59:26.284Z,8.40
2023-04-13T04:01:53.282Z,8.30
2023-04-13T04:04:22.432Z,8.30
2023-04-13T04:06:49.606Z,8.30
2023-04-13T04:09:16.504Z,8.30
2023-04-13T04:11:43.587Z,8.40
2023-04-13T04:14:13.082Z,8.30
2023-04-13T04:16:40.032Z,8.30
2023-04-13T04:19:07.195Z,8.30
2023-04-13T04:21:34.508Z,8.40
2023-04-13T04:24:02.144Z,8.40
2023-04-13T04:26:30.243Z,8.40
2023-04-13T04:29:02.580Z,8.40
2023-04-13T04:31:36.982Z,8.40
2023-04-13T04:34:04.852Z,8.40
2023-04-13T04:36:31.809Z,8.40
2023-04-13T04:39:02.612Z,8.40
2023-04-13T04:41:31.383Z,8.40
2023-04-13T04:44:02.817Z,8.30
2023-04-13T04:46:30.079Z,8.30
2023-04-13T04:49:00.785Z,8.40
2023-04-13T04:51:28.843Z,8.30
2023-04-13T04:53:57.992Z,8.30
2023-04-13T04:56:25.353Z,8.20
2023-04-13T04:58:52.815Z,8.20
2023-04-13T05:01:23.022Z,8.20
2023-04-13T05:03:50.084Z,8.20
2023-04-13T05:06:17.038Z,8.10
2023-04-13T05:08:45.009Z,8.20
2023-04-13T05:11:11.959Z,8.20
2023-04-13T05:13:38.905Z,8.10
2023-04-13T05:16:06.250Z,8.10
2023-04-13T05:18:46.771Z,8.10
2023-04-13T05:21:15.029Z,8.10
2023-04-13T05:23:43.179Z,8.10
2023-04-13T05:26:12.176Z,8.10
2023-04-13T05:28:39.840Z,8.10
2023-04-13T05:31:09.011Z,8.10
2023-04-13T05:33:36.162Z,8.10
2023-04-13T05:36:04.598Z,8.10
2023-04-13T05:38:31.886Z,8.00
2023-04-13T05:40:59.666Z,8.00
2023-04-13T05:43:27.116Z,8.00
2023-04-13T05:45:54.265Z,7.90
2023-04-13T05:48:21.595Z,7.80
2023-04-13T05:50:48.600Z,7.70
2023-04-13T05:53:15.735Z,7.60
2023-04-13T05:55:45.579Z,7.60
2023-04-13T05:58:14.414Z,7.60
2023-04-13T06:00:41.469Z,7.70
2023-04-13T06:03:08.887Z,7.70
2023-04-13T06:05:36.818Z,7.80
2023-04-13T06:08:03.946Z,7.80
2023-04-13T06:10:31.528Z,7.70
2023-04-13T06:12:59.028Z,7.70
2023-04-13T06:15:26.324Z,7.70
2023-04-13T06:17:53.772Z,7.60
2023-04-13T06:20:21.730Z,7.70
2023-04-13T06:22:49.330Z,7.60
2023-04-13T06:25:16.771Z,7.70
2023-04-13T06:27:44.342Z,7.60
2023-04-13T06:30:12.351Z,7.70
2023-04-13T06:32:39.523Z,7.70
2023-04-13T06:35:07.221Z,7.70
2023-04-13T06:37:38.251Z,7.50
2023-04-13T06:40:12.957Z,7.60
2023-04-13T06:42:41.625Z,7.60
2023-04-13T06:45:10.147Z,7.50
2023-04-13T06:47:40.957Z,7.50
2023-04-13T06:50:10.208Z,7.60
2023-04-13T06:52:37.662Z,7.30
2023-04-13T06:55:05.876Z,7.60
2023-04-13T06:57:33.202Z,7.60
2023-04-13T07:00:00.522Z,7.60
2023-04-13T07:02:27.939Z,7.50
2023-04-13T07:04:55.180Z,7.40
2023-04-13T07:07:22.236Z,7.30
2023-04-13T07:09:49.232Z,7.30
2023-04-13T07:12:16.241Z,7.30
2023-04-13T07:14:43.572Z,7.50
2023-04-13T07:17:13.179Z,7.50
2023-04-13T07:19:50.099Z,7.60
2023-04-13T07:22:17.440Z,7.50
2023-04-13T07:24:44.355Z,7.40
2023-04-13T07:27:12.588Z,7.50
2023-04-13T07:29:39.588Z,7.50
2023-04-13T07:32:07.385Z,7.60
2023-04-13T07:34:35.943Z,7.70
2023-04-13T07:37:02.886Z,7.80
2023-04-13T07:39:29.810Z,8.20
2023-04-13T07:41:57.311Z,8.40
2023-04-13T07:44:24.267Z,8.80
2023-04-13T07:46:51.638Z,8.80
2023-04-13T07:49:20.675Z,8.60
2023-04-13T07:51:47.592Z,9.20
2023-04-13T07:54:16.710Z,9.00
2023-04-13T07:56:43.978Z,9.00
2023-04-13T07:59:10.981Z,9.00
2023-04-13T08:01:38.064Z,8.70
2023-04-13T08:04:05.197Z,8.80
2023-04-13T08:06:35.466Z,8.70
2023-04-13T08:09:14.127Z,8.80
2023-04-13T08:11:42.836Z,9.00
2023-04-13T08:14:11.743Z,9.60
2023-04-13T08:16:38.761Z,10.00
2023-04-13T08:19:06.615Z,10.10
2023-04-13T08:21:37.514Z,9.90
2023-04-13T08:24:04.757Z,10.00
2023-04-13T08:26:31.760Z,10.00
2023-04-13T08:28:59.069Z,9.20
2023-04-13T08:31:26.269Z,9.10
2023-04-13T08:33:57.125Z,9.10
2023-04-13T08:36:24.628Z,9.20
2023-04-13T08:38:51.496Z,9.60
2023-04-13T08:41:19.408Z,9.70
2023-04-13T08:43:47.437Z,10.00
2023-04-13T08:46:21.395Z,9.90
2023-04-13T08:48:53.880Z,9.60
2023-04-13T08:51:33.545Z,9.70
2023-04-13T08:54:00.640Z,9.60
2023-04-13T08:56:42.110Z,9.40
2023-04-13T08:59:13.036Z,9.10
2023-04-13T09:01:42.081Z,9.30
2023-04-13T09:04:11.157Z,9.30
2023-04-13T09:06:43.182Z,9.40
2023-04-13T09:09:14.522Z,9.50
2023-04-13T09:11:49.319Z,9.40
2023-04-13T09:14:22.330Z,9.40
2023-04-13T09:16:52.089Z,9.40
2023-04-13T09:19:32.869Z,9.60
2023-04-13T09:22:01.330Z,9.60
2023-04-13T09:24:39.798Z,9.70
2023-04-13T09:27:06.853Z,9.50
2023-04-13T09:29:33.841Z,9.60
2023-04-13T09:32:01.248Z,9.60
2023-04-13T09:34:29.564Z,9.50
2023-04-13T09:36:59.331Z,9.60
2023-04-13T09:39:29.181Z,9.50
2023-04-13T09:41:56.817Z,9.70
2023-04-13T09:44:34.858Z,9.80
2023-04-13T09:47:04.523Z,10.00
2023-04-13T09:49:42.599Z,9.80
2023-04-13T09:52:23.754Z,9.90
2023-04-13T09:54:55.922Z,9.90
2023-04-13T09:57:27.242Z,9.90
2023-04-13T09:59:55.406Z,9.90
2023-04-13T10:02:22.813Z,9.60
2023-04-13T10:04:50.736Z,9.60
2023-04-13T10:07:18.290Z,9.40
2023-04-13T10:09:45.562Z,9.00
2023-04-13T10:12:16.266Z,8.80
2023-04-13T10:14:48.805Z,8.80
2023-04-13T10:17:48.187Z,8.80
2023-04-13T10:20:15.529Z,8.60
2023-04-13T10:22:45.126Z,8.70
2023-04-13T10:25:25.696Z,8.80
2023-04-13T10:28:00.718Z,8.80
2023-04-13T10:30:28.718Z,8.70
2023-04-13T10:33:05.578Z,8.80
2023-04-13T10:35:37.372Z,8.70
2023-04-13T10:38:04.893Z,8.80
2023-04-13T10:40:45.903Z,9.00
2023-04-13T10:43:13.232Z,9.00
2023-04-13T10:45:40.326Z,9.10
2023-04-13T10:48:07.928Z,8.80
2023-04-13T10:50:35.182Z,8.50
2023-04-13T10:53:07.616Z,8.40
2023-04-13T10:55:36.090Z,8.20
2023-04-13T10:58:14.011Z,8.20
2023-04-13T11:00:46.619Z,8.10
2023-04-13T11:03:19.248Z,8.20
2023-04-13T11:05:47.788Z,8.10
2023-04-13T11:08:21.453Z,8.00
2023-04-13T11:10:56.532Z,7.80
2023-04-13T11:13:29.750Z,7.70
2023-04-13T11:16:06.815Z,7.70
2023-04-13T11:18:34.008Z,7.70
2023-04-13T11:21:04.730Z,7.50
2023-04-13T11:23:36.235Z,7.60
2023-04-13T11:26:04.830Z,7.60
2023-04-13T11:28:40.272Z,7.50
2023-04-13T11:31:07.828Z,7.50
2023-04-13T11:33:38.668Z,7.40
2023-04-13T11:36:08.055Z,7.40
2023-04-13T11:38:35.116Z,7.30
2023-04-13T11:41:15.122Z,7.10
2023-04-13T11:43:46.696Z,7.10
2023-04-13T11:46:16.367Z,7.00
2023-04-13T11:48:43.828Z,6.90
2023-04-13T11:51:11.812Z,6.80
2023-04-13T11:53:40.752Z,6.90
2023-04-13T11:56:08.771Z,6.80
2023-04-13T11:58:37.941Z,6.80
2023-04-13T12:03:57.078Z,7.00
2023-04-13T12:06:27.929Z,7.00
2023-04-13T12:09:09.997Z,7.10
2023-04-13T12:11:42.735Z,7.10
2023-04-13T12:19:26.731Z,7.10
2023-04-13T12:21:58.977Z,7.00
2023-04-13T12:24:37.756Z,7.00
2023-04-13T12:29:40.048Z,6.90
2023-04-13T12:32:15.108Z,6.80
2023-04-13T12:34:43.413Z,6.90
2023-04-13T12:37:13.223Z,6.90
2023-04-13T12:39:41.798Z,6.80
2023-04-13T12:42:08.806Z,6.90
2023-04-13T12:44:36.559Z,6.80
2023-04-13T12:47:03.937Z,6.70
2023-04-13T12:49:31.261Z,6.70
2023-04-13T12:51:58.297Z,6.80
2023-04-13T12:54:25.620Z,6.70
2023-04-13T12:56:52.706Z,6.70
2023-04-13T12:59:23.166Z,6.50
2023-04-13T13:01:50.681Z,6.50
2023-04-13T13:04:17.928Z,6.30
2023-04-13T13:06:44.891Z,6.30
2023-04-13T13:09:12.075Z,6.30
2023-04-13T13:11:39.063Z,6.30
2023-04-13T13:14:06.333Z,6.30
2023-04-13T13:16:36.477Z,6.20
2023-04-13T13:19:03.708Z,6.20
2023-04-13T13:21:31.425Z,6.20
2023-04-13T13:23:58.329Z,6.10
2023-04-13T13:26:28.869Z,6.10
2023-04-13T13:29:02.474Z,6.10
2023-04-13T13:31:29.367Z,6.00
2023-04-13T13:33:56.230Z,6.00
2023-04-13T13:36:23.129Z,6.00
2023-04-13T13:38:50.106Z,5.80
2023-04-13T13:41:17.357Z,5.80
2023-04-13T13:43:44.353Z,5.90
2023-04-13T13:46:11.609Z,5.90
2023-04-13T13:48:38.593Z,5.80
2023-04-13T13:51:07.492Z,5.80
2023-04-13T13:53:34.901Z,5.70
2023-04-13T13:56:03.774Z,5.70
2023-04-13T13:58:30.923Z,5.50
2023-04-13T14:00:58.205Z,5.60
2023-04-13T14:03:25.357Z,5.50
2023-04-13T14:05:52.491Z,5.40
2023-04-13T14:08:19.457Z,5.40
2023-04-13T14:10:49.330Z,5.50
2023-04-13T14:13:17.067Z,5.40
2023-04-13T14:15:44.460Z,5.40
2023-04-13T14:18:12.160Z,5.30
2023-04-13T14:20:40.000Z,5.20
2023-04-13T14:23:09.352Z,5.10
2023-04-13T14:25:37.252Z,5.20
2023-04-13T14:28:04.300Z,5.20
2023-04-13T14:30:31.340Z,5.20
2023-04-13T14:32:58.257Z,5.30
2023-04-13T14:35:25.162Z,5.10
2023-04-13T14:37:52.957Z,5.10
2023-04-13T14:40:23.946Z,5.10
2023-04-13T14:42:54.086Z,5.10
2023-04-13T14:45:21.737Z,5.00
2023-04-13T14:47:49.019Z,5.10
2023-04-13T14:50:17.111Z,5.10
2023-04-13T14:52:44.915Z,5.10
2023-04-13T14:55:12.407Z,5.20
2023-04-13T14:57:40.158Z,5.20
2023-04-13T15:00:21.875Z,5.10
2023-04-13T15:02:51.232Z,5.20
2023-04-13T15:05:19.083Z,5.00
2023-04-13T15:07:46.388Z,5.10
2023-04-13T15:10:14.455Z,5.10
2023-04-13T15:12:41.478Z,5.00
2023-04-13T15:15:09.089Z,5.10
2023-04-13T15:17:36.117Z,5.00
2023-04-13T15:20:07.129Z,5.00
2023-04-13T15:22:36.034Z,5.00
2023-04-13T15:25:03.718Z,5.00
2023-04-13T15:27:30.768Z,5.10
2023-04-13T15:30:00.073Z,5.10
2023-04-13T15:32:27.141Z,5.10
2023-04-13T15:34:56.442Z,5.20
2023-04-13T15:37:26.379Z,5.00
2023-04-13T15:39:54.830Z,5.10
2023-04-13T15:42:22.521Z,4.90
2023-04-13T15:44:49.431Z,5.00
2023-04-13T15:47:16.334Z,5.00
2023-04-13T15:49:43.217Z,4.90
2023-04-13T15:52:10.390Z,4.90
2023-04-13T15:54:37.454Z,5.00
2023-04-13T15:57:04.502Z,5.00
2023-04-13T15:59:33.331Z,5.00
2023-04-13T16:02:00.486Z,4.90
2023-04-13T16:04:27.835Z,4.80
2023-04-13T16:07:09.247Z,4.90
2023-04-13T16:09:39.492Z,5.00
2023-04-13T16:12:17.592Z,4.90
2023-04-13T16:14:47.252Z,5.00
2023-04-13T16:17:18.611Z,4.90
2023-04-13T16:19:47.349Z,4.80
2023-04-13T16:22:14.504Z,4.80
2023-04-13T16:24:42.101Z,4.80
2023-04-13T16:27:10.222Z,4.80
2023-04-13T16:29:38.499Z,4.90
2023-04-13T16:32:08.143Z,4.80
2023-04-13T16:34:35.473Z,4.70
2023-04-13T16:37:06.591Z,4.80
2023-04-13T16:39:33.443Z,4.80
2023-04-13T16:42:00.686Z,4.80
2023-04-13T16:44:27.610Z,4.80
2023-04-13T16:46:54.650Z,4.80
2023-04-13T16:49:21.650Z,4.90
2023-04-13T16:51:48.632Z,4.80
2023-04-13T16:54:17.909Z,4.80
2023-04-13T16:56:44.922Z,4.70
2023-04-13T16:59:11.861Z,4.80
2023-04-13T17:01:39.872Z,4.80
2023-04-13T17:04:07.016Z,4.90
2023-04-13T17:06:37.304Z,4.90
2023-04-13T17:09:05.350Z,4.80
2023-04-13T17:11:32.575Z,4.80
2023-04-13T17:13:59.866Z,4.80
2023-04-13T17:16:29.525Z,4.60
2023-04-13T17:18:56.864Z,4.70
2023-04-13T17:21:24.052Z,4.70
2023-04-13T17:23:51.032Z,4.80
2023-04-13T17:26:18.099Z,4.80
2023-04-13T17:28:45.006Z,4.80
2023-04-13T17:31:11.847Z,4.80
2023-04-13T17:33:38.791Z,4.80
2023-04-13T17:36:06.220Z,4.80
2023-04-13T17:38:33.153Z,4.70
2023-04-13T17:41:00.477Z,4.70
2023-04-13T17:43:27.345Z,4.80
2023-04-13T17:45:54.253Z,4.80
2023-04-13T17:48:21.205Z,4.80
2023-04-13T17:50:48.269Z,4.70
2023-04-13T17:53:15.597Z,4.80
2023-04-13T17:55:45.506Z,4.80
2023-04-13T17:58:12.783Z,4.80
2023-04-13T18:00:39.818Z,4.70
2023-04-13T18:03:08.316Z,4.80
2023-04-13T18:05:35.748Z,4.80
2023-04-13T18:08:02.632Z,4.70
2023-04-13T18:10:29.521Z,4.70
2023-04-13T18:13:00.842Z,4.70
2023-04-13T18:15:27.770Z,4.70
2023-04-13T18:17:54.877Z,4.60
2023-04-13T18:20:21.927Z,4.70
2023-04-13T18:22:49.062Z,4.70
2023-04-13T18:25:18.928Z,4.70
2023-04-13T18:27:45.890Z,4.70
2023-04-13T18:30:13.448Z,4.70
2023-04-13T18:32:40.503Z,4.60
2023-04-13T18:35:07.783Z,4.70
2023-04-13T18:37:34.645Z,4.60
2023-04-13T18:40:04.419Z,4.60
2023-04-13T18:42:33.444Z,4.60
2023-04-13T18:45:00.449Z,4.60
2023-04-13T18:47:28.350Z,4.60
2023-04-13T18:49:58.298Z,4.60
2023-04-13T18:52:26.021Z,4.40
2023-04-13T18:54:53.208Z,4.50
2023-04-13T18:57:20.326Z,4.50
2023-04-13T18:59:47.288Z,4.60
2023-04-13T19:02:15.205Z,4.50
2023-04-13T19:04:42.309Z,4.40
2023-04-13T19:07:09.760Z,4.50
2023-04-13T19:09:37.394Z,4.50
2023-04-13T19:12:06.083Z,4.50
2023-04-13T19:14:33.342Z,4.50
2023-04-13T19:17:00.875Z,4.50
2023-04-13T19:19:27.850Z,4.50
2023-04-13T19:21:56.002Z,4.50
2023-04-13T19:24:23.205Z,4.60
2023-04-13T19:26:50.285Z,4.60
2023-04-13T19:29:17.529Z,4.60
2023-04-13T19:31:45.745Z,4.60
2023-04-13T19:34:13.218Z,4.50
2023-04-13T19:36:41.352Z,4.50
2023-04-13T19:39:09.040Z,4.50
2023-04-13T19:41:37.999Z,4.40
2023-04-13T19:44:05.927Z,4.40
2023-04-13T19:46:33.058Z,4.40
2023-04-13T19:49:02.207Z,4.40
2023-04-13T19:51:30.181Z,4.30
2023-04-13T19:54:01.934Z,4.40
2023-04-13T19:56:34.408Z,4.30
2023-04-13T19:59:03.370Z,4.40
2023-04-13T20:01:33.061Z,4.30
2023-04-13T20:04:02.002Z,4.30
2023-04-13T20:06:29.742Z,4.30
2023-04-13T20:09:10.810Z,4.30
2023-04-13T20:11:38.064Z,4.40
2023-04-13T20:14:05.730Z,4.30
2023-04-13T20:16:34.828Z,4.40
2023-04-13T20:19:02.071Z,4.40
2023-04-13T20:21:31.119Z,4.40
2023-04-13T20:23:58.545Z,4.40
2023-04-13T20:26:28.192Z,4.40
2023-04-13T20:29:05.221Z,4.30
2023-04-13T20:31:33.215Z,4.30
2023-04-13T20:34:00.762Z,4.40
2023-04-13T20:36:28.295Z,4.30
2023-04-13T20:38:59.745Z,4.30
2023-04-13T20:41:30.058Z,4.40
2023-04-13T20:43:57.053Z,4.40
2023-04-13T20:46:25.370Z,4.40
2023-04-13T20:48:52.866Z,4.40
2023-04-13T20:51:23.374Z,4.40
2023-04-13T20:53:50.229Z,4.40
2023-04-13T20:56:19.063Z,4.40
2023-04-13T20:58:47.190Z,4.40
2023-04-13T21:01:15.516Z,4.40
2023-04-13T21:03:43.067Z,4.50
2023-04-13T21:06:10.310Z,4.40
2023-04-13T21:08:37.202Z,4.40
2023-04-13T21:11:13.224Z,4.40
2023-04-13T21:13:40.466Z,4.50
2023-04-13T21:16:09.107Z,4.40
2023-04-13T21:18:39.224Z,4.50
2023-04-13T21:21:06.765Z,4.40
2023-04-13T21:23:36.213Z,4.50
2023-04-13T21:26:04.545Z,4.50
2023-04-13T21:28:31.444Z,4.50
2023-04-13T21:30:58.447Z,4.50
2023-04-13T21:33:25.396Z,4.50
2023-04-13T21:35:52.302Z,4.60
2023-04-13T21:38:19.203Z,4.60
2023-04-13T21:40:46.120Z,4.60
2023-04-13T21:43:13.100Z,4.60
2023-04-13T21:45:40.103Z,4.60
2023-04-13T21:48:07.058Z,4.70
2023-04-13T21:50:33.978Z,4.70
2023-04-13T21:53:00.992Z,4.70
2023-04-13T21:55:27.896Z,4.80
2023-04-13T21:57:54.871Z,4.80
2023-04-13T22:00:22.416Z,4.90
2023-04-13T22:02:51.371Z,4.80
2023-04-13T22:05:18.612Z,4.80
2023-04-13T22:07:45.591Z,4.80
2023-04-13T22:10:12.622Z,4.80
2023-04-13T22:12:39.485Z,4.80
2023-04-13T22:15:07.044Z,4.70
2023-04-13T22:17:33.977Z,4.80
2023-04-13T22:20:01.129Z,4.80
2023-04-13T22:22:28.073Z,4.80
2023-04-13T22:24:54.987Z,4.80
2023-04-13T22:27:21.944Z,4.90
2023-04-13T22:29:49.048Z,4.90
2023-04-13T22:32:16.692Z,4.90
2023-04-13T22:34:43.763Z,4.90
2023-04-13T22:37:12.344Z,4.90
2023-04-13T22:39:39.885Z,4.90
2023-04-13T22:42:06.745Z,4.90
2023-04-13T22:44:34.771Z,4.90
2023-04-13T22:47:04.888Z,4.80
2023-04-13T22:49:31.834Z,4.80
2023-04-13T22:52:00.428Z,4.80
2023-04-13T22:54:27.496Z,4.80
2023-04-13T22:56:54.515Z,4.80
2023-04-13T22:59:21.462Z,4.80
2023-04-13T23:01:48.425Z,4.80
2023-04-13T23:04:16.158Z,4.80
2023-04-13T23:06:43.482Z,4.80
2023-04-13T23:09:10.384Z,4.80
2023-04-13T23:11:37.703Z,4.80
2023-04-13T23:14:06.651Z,4.80
2023-04-13T23:16:34.261Z,4.80
2023-04-13T23:19:01.539Z,4.80
2023-04-13T23:21:29.619Z,4.90
2023-04-13T23:24:38.116Z,4.90
2023-04-13T23:27:46.438Z,4.90
2023-04-13T23:30:13.618Z,4.90
2023-04-13T23:32:40.715Z,4.90
2023-04-13T23:35:08.558Z,4.90
2023-04-13T23:37:35.551Z,5.00
2023-04-13T23:40:02.475Z,4.90
2023-04-13T23:42:29.467Z,4.90
2023-04-13T23:44:56.366Z,4.90
2023-04-13T23:47:23.915Z,4.80
2023-04-13T23:49:51.646Z,4.90
2023-04-13T23:52:18.923Z,4.90
2023-04-13T23:54:45.959Z,4.80
2023-04-13T23:57:12.967Z,4.80
2023-04-13T23:59:39.996Z,4.80
